sensor_id;sensor_type;location;lat;lon;timestamp;P1;durP1;ratioP1;P2;durP2;ratioP2
37459;SDS011;23318;50.966;5.284;2023-06-22T00:00:42;3.60;;;2.85;;
37459;SDS011;23318;50.966;5.284;2023-06-22T00:03:08;5.03;;;3.42;;
37459;SDS011;23318;50.966;5.284;2023-06-22T00:05:34;6.63;;;3.40;;
37459;SDS011;23318;50.966;5.284;2023-06-22T00:08:03;4.20;;;2.75;;
37459;SDS011;23318;50.966;5.284;2023-06-22T00:10:31;4.90;;;3.35;;
37459;SDS011;23318;50.966;5.284;2023-06-22T00:12:57;4.05;;;3.22;;
37459;SDS011;23318;50.966;5.284;2023-06-22T00:15:23;5.75;;;3.20;;
37459;SDS011;23318;50.966;5.284;2023-06-22T00:17:49;4.00;;;3.15;;
37459;SDS011;23318;50.966;5.284;2023-06-22T00:20:15;6.13;;;2.90;;
37459;SDS011;23318;50.966;5.284;2023-06-22T00:22:43;4.38;;;3.20;;
37459;SDS011;23318;50.966;5.284;2023-06-22T00:25:12;4.60;;;3.00;;
37459;SDS011;23318;50.966;5.284;2023-06-22T00:27:38;3.38;;;2.97;;
37459;SDS011;23318;50.966;5.284;2023-06-22T00:30:04;5.35;;;3.38;;
37459;SDS011;23318;50.966;5.284;2023-06-22T00:32:30;4.68;;;3.03;;
37459;SDS011;23318;50.966;5.284;2023-06-22T00:34:56;5.15;;;3.20;;
37459;SDS011;23318;50.966;5.284;2023-06-22T00:37:21;5.05;;;3.28;;
37459;SDS011;23318;50.966;5.284;2023-06-22T00:39:50;3.22;;;2.72;;
37459;SDS011;23318;50.966;5.284;2023-06-22T00:42:16;4.43;;;3.63;;
37459;SDS011;23318;50.966;5.284;2023-06-22T00:44:42;3.38;;;2.92;;
37459;SDS011;23318;50.966;5.284;2023-06-22T00:47:09;3.15;;;2.92;;
37459;SDS011;23318;50.966;5.284;2023-06-22T00:49:37;3.78;;;3.20;;
37459;SDS011;23318;50.966;5.284;2023-06-22T00:52:04;3.88;;;3.30;;
37459;SDS011;23318;50.966;5.284;2023-06-22T00:54:34;4.53;;;3.08;;
37459;SDS011;23318;50.966;5.284;2023-06-22T00:57:01;5.57;;;2.92;;
37459;SDS011;23318;50.966;5.284;2023-06-22T00:59:27;4.32;;;3.10;;
37459;SDS011;23318;50.966;5.284;2023-06-22T01:01:53;3.53;;;2.97;;
37459;SDS011;23318;50.966;5.284;2023-06-22T01:04:19;3.88;;;3.30;;
37459;SDS011;23318;50.966;5.284;2023-06-22T01:07:09;4.22;;;3.45;;
37459;SDS011;23318;50.966;5.284;2023-06-22T01:09:49;3.60;;;3.30;;
37459;SDS011;23318;50.966;5.284;2023-06-22T01:12:40;4.55;;;2.97;;
37459;SDS011;23318;50.966;5.284;2023-06-22T01:15:11;5.20;;;3.20;;
37459;SDS011;23318;50.966;5.284;2023-06-22T01:17:44;5.10;;;2.92;;
37459;SDS011;23318;50.966;5.284;2023-06-22T01:20:12;4.80;;;3.35;;
37459;SDS011;23318;50.966;5.284;2023-06-22T01:25:36;4.30;;;3.50;;
37459;SDS011;23318;50.966;5.284;2023-06-22T01:30:49;4.38;;;3.53;;
37459;SDS011;23318;50.966;5.284;2023-06-22T01:33:28;4.63;;;3.20;;
37459;SDS011;23318;50.966;5.284;2023-06-22T01:35:55;4.47;;;3.35;;
37459;SDS011;23318;50.966;5.284;2023-06-22T01:38:21;4.13;;;3.03;;
37459;SDS011;23318;50.966;5.284;2023-06-22T01:40:47;5.22;;;3.58;;
37459;SDS011;23318;50.966;5.284;2023-06-22T01:43:14;6.13;;;3.75;;
37459;SDS011;23318;50.966;5.284;2023-06-22T01:45:41;6.57;;;3.25;;
37459;SDS011;23318;50.966;5.284;2023-06-22T01:48:07;4.00;;;3.22;;
37459;SDS011;23318;50.966;5.284;2023-06-22T01:50:33;5.15;;;3.47;;
37459;SDS011;23318;50.966;5.284;2023-06-22T01:52:59;5.22;;;3.38;;
37459;SDS011;23318;50.966;5.284;2023-06-22T01:55:24;5.30;;;3.45;;
37459;SDS011;23318;50.966;5.284;2023-06-22T01:57:50;5.75;;;4.03;;
37459;SDS011;23318;50.966;5.284;2023-06-22T02:00:18;4.95;;;3.60;;
37459;SDS011;23318;50.966;5.284;2023-06-22T02:05:19;4.38;;;3.60;;
37459;SDS011;23318;50.966;5.284;2023-06-22T02:07:52;5.53;;;3.70;;
37459;SDS011;23318;50.966;5.284;2023-06-22T02:10:43;6.13;;;3.88;;
37459;SDS011;23318;50.966;5.284;2023-06-22T02:13:11;6.13;;;4.25;;
37459;SDS011;23318;50.966;5.284;2023-06-22T02:15:39;5.60;;;4.22;;
37459;SDS011;23318;50.966;5.284;2023-06-22T02:18:05;5.78;;;4.13;;
37459;SDS011;23318;50.966;5.284;2023-06-22T02:20:31;6.38;;;4.90;;
37459;SDS011;23318;50.966;5.284;2023-06-22T02:22:57;9.18;;;4.93;;
37459;SDS011;23318;50.966;5.284;2023-06-22T02:25:23;5.97;;;4.28;;
37459;SDS011;23318;50.966;5.284;2023-06-22T02:27:48;7.90;;;4.50;;
37459;SDS011;23318;50.966;5.284;2023-06-22T02:30:14;5.90;;;4.40;;
37459;SDS011;23318;50.966;5.284;2023-06-22T02:32:41;5.78;;;4.43;;
37459;SDS011;23318;50.966;5.284;2023-06-22T02:35:07;8.45;;;5.40;;
37459;SDS011;23318;50.966;5.284;2023-06-22T02:37:37;8.30;;;4.72;;
37459;SDS011;23318;50.966;5.284;2023-06-22T02:40:09;8.05;;;5.65;;
37459;SDS011;23318;50.966;5.284;2023-06-22T02:42:35;6.85;;;5.82;;
37459;SDS011;23318;50.966;5.284;2023-06-22T02:45:02;8.65;;;6.03;;
37459;SDS011;23318;50.966;5.284;2023-06-22T02:47:28;7.95;;;6.55;;
37459;SDS011;23318;50.966;5.284;2023-06-22T02:49:54;9.98;;;6.70;;
37459;SDS011;23318;50.966;5.284;2023-06-22T02:52:20;7.88;;;6.93;;
37459;SDS011;23318;50.966;5.284;2023-06-22T02:54:45;8.93;;;6.90;;
37459;SDS011;23318;50.966;5.284;2023-06-22T02:57:11;8.20;;;6.95;;
37459;SDS011;23318;50.966;5.284;2023-06-22T02:59:38;11.93;;;6.95;;
37459;SDS011;23318;50.966;5.284;2023-06-22T03:02:07;11.10;;;7.93;;
37459;SDS011;23318;50.966;5.284;2023-06-22T03:04:34;12.00;;;8.07;;
37459;SDS011;23318;50.966;5.284;2023-06-22T03:07:00;11.30;;;8.43;;
37459;SDS011;23318;50.966;5.284;2023-06-22T03:09:26;10.15;;;7.88;;
37459;SDS011;23318;50.966;5.284;2023-06-22T03:11:53;11.48;;;9.00;;
37459;SDS011;23318;50.966;5.284;2023-06-22T03:14:19;10.98;;;8.45;;
37459;SDS011;23318;50.966;5.284;2023-06-22T03:16:44;11.30;;;9.32;;
37459;SDS011;23318;50.966;5.284;2023-06-22T03:19:10;14.05;;;9.38;;
37459;SDS011;23318;50.966;5.284;2023-06-22T03:21:36;13.85;;;9.30;;
37459;SDS011;23318;50.966;5.284;2023-06-22T03:24:03;13.35;;;9.60;;
37459;SDS011;23318;50.966;5.284;2023-06-22T03:26:30;15.48;;;10.93;;
37459;SDS011;23318;50.966;5.284;2023-06-22T03:28:55;14.80;;;11.75;;
37459;SDS011;23318;50.966;5.284;2023-06-22T03:31:21;14.35;;;12.07;;
37459;SDS011;23318;50.966;5.284;2023-06-22T03:33:48;14.10;;;12.07;;
37459;SDS011;23318;50.966;5.284;2023-06-22T03:36:14;15.80;;;13.27;;
37459;SDS011;23318;50.966;5.284;2023-06-22T03:38:44;18.65;;;13.60;;
37459;SDS011;23318;50.966;5.284;2023-06-22T03:41:10;18.90;;;12.93;;
37459;SDS011;23318;50.966;5.284;2023-06-22T03:43:36;18.58;;;13.43;;
37459;SDS011;23318;50.966;5.284;2023-06-22T03:46:02;16.75;;;13.18;;
37459;SDS011;23318;50.966;5.284;2023-06-22T03:48:27;17.35;;;13.38;;
37459;SDS011;23318;50.966;5.284;2023-06-22T03:50:53;17.17;;;14.00;;
37459;SDS011;23318;50.966;5.284;2023-06-22T03:53:19;19.15;;;13.82;;
37459;SDS011;23318;50.966;5.284;2023-06-22T03:55:51;18.38;;;13.30;;
37459;SDS011;23318;50.966;5.284;2023-06-22T03:58:18;16.60;;;14.33;;
37459;SDS011;23318;50.966;5.284;2023-06-22T04:00:48;19.65;;;13.80;;
37459;SDS011;23318;50.966;5.284;2023-06-22T04:03:16;15.95;;;12.55;;
37459;SDS011;23318;50.966;5.284;2023-06-22T04:05:43;20.08;;;13.25;;
37459;SDS011;23318;50.966;5.284;2023-06-22T04:08:09;18.40;;;13.73;;
37459;SDS011;23318;50.966;5.284;2023-06-22T04:10:35;16.23;;;11.77;;
37459;SDS011;23318;50.966;5.284;2023-06-22T04:13:01;13.65;;;11.77;;
37459;SDS011;23318;50.966;5.284;2023-06-22T04:15:27;12.27;;;10.05;;
37459;SDS011;23318;50.966;5.284;2023-06-22T04:17:54;14.75;;;11.40;;
37459;SDS011;23318;50.966;5.284;2023-06-22T04:20:20;15.93;;;12.05;;
37459;SDS011;23318;50.966;5.284;2023-06-22T04:22:46;17.85;;;12.20;;
37459;SDS011;23318;50.966;5.284;2023-06-22T04:25:11;15.70;;;12.35;;
37459;SDS011;23318;50.966;5.284;2023-06-22T04:27:37;16.98;;;14.10;;
37459;SDS011;23318;50.966;5.284;2023-06-22T04:30:05;19.33;;;14.20;;
37459;SDS011;23318;50.966;5.284;2023-06-22T04:32:32;14.07;;;12.60;;
37459;SDS011;23318;50.966;5.284;2023-06-22T04:35:04;20.17;;;14.20;;
37459;SDS011;23318;50.966;5.284;2023-06-22T04:37:31;23.23;;;13.75;;
37459;SDS011;23318;50.966;5.284;2023-06-22T04:39:58;15.65;;;12.57;;
37459;SDS011;23318;50.966;5.284;2023-06-22T04:42:25;16.73;;;12.45;;
37459;SDS011;23318;50.966;5.284;2023-06-22T04:44:51;20.02;;;14.10;;
37459;SDS011;23318;50.966;5.284;2023-06-22T04:47:17;17.45;;;14.23;;
37459;SDS011;23318;50.966;5.284;2023-06-22T04:49:43;20.08;;;15.50;;
37459;SDS011;23318;50.966;5.284;2023-06-22T04:52:10;19.70;;;14.55;;
37459;SDS011;23318;50.966;5.284;2023-06-22T04:54:37;19.52;;;14.25;;
37459;SDS011;23318;50.966;5.284;2023-06-22T04:57:05;21.17;;;14.93;;
37459;SDS011;23318;50.966;5.284;2023-06-22T04:59:36;17.30;;;13.90;;
37459;SDS011;23318;50.966;5.284;2023-06-22T05:02:04;21.95;;;15.07;;
37459;SDS011;23318;50.966;5.284;2023-06-22T05:04:31;16.05;;;14.00;;
37459;SDS011;23318;50.966;5.284;2023-06-22T05:06:57;20.00;;;15.32;;
37459;SDS011;23318;50.966;5.284;2023-06-22T05:09:23;20.00;;;14.73;;
37459;SDS011;23318;50.966;5.284;2023-06-22T05:11:50;18.33;;;14.50;;
37459;SDS011;23318;50.966;5.284;2023-06-22T05:14:16;17.92;;;14.20;;
37459;SDS011;23318;50.966;5.284;2023-06-22T05:16:42;19.25;;;14.90;;
37459;SDS011;23318;50.966;5.284;2023-06-22T05:19:08;19.75;;;13.93;;
37459;SDS011;23318;50.966;5.284;2023-06-22T05:21:34;16.63;;;14.65;;
37459;SDS011;23318;50.966;5.284;2023-06-22T05:24:00;18.15;;;15.50;;
37459;SDS011;23318;50.966;5.284;2023-06-22T05:26:27;21.17;;;16.25;;
37459;SDS011;23318;50.966;5.284;2023-06-22T05:28:54;21.65;;;15.45;;
37459;SDS011;23318;50.966;5.284;2023-06-22T05:31:20;20.27;;;15.38;;
37459;SDS011;23318;50.966;5.284;2023-06-22T05:33:46;19.52;;;15.15;;
37459;SDS011;23318;50.966;5.284;2023-06-22T05:36:13;22.10;;;15.85;;
37459;SDS011;23318;50.966;5.284;2023-06-22T05:38:39;23.52;;;15.60;;
37459;SDS011;23318;50.966;5.284;2023-06-22T05:41:05;21.48;;;15.80;;
37459;SDS011;23318;50.966;5.284;2023-06-22T05:43:31;20.38;;;15.43;;
37459;SDS011;23318;50.966;5.284;2023-06-22T05:45:57;20.40;;;14.88;;
37459;SDS011;23318;50.966;5.284;2023-06-22T05:48:24;17.10;;;14.98;;
37459;SDS011;23318;50.966;5.284;2023-06-22T05:50:50;18.45;;;15.88;;
37459;SDS011;23318;50.966;5.284;2023-06-22T05:53:16;21.60;;;16.33;;
37459;SDS011;23318;50.966;5.284;2023-06-22T05:55:41;23.15;;;17.20;;
37459;SDS011;23318;50.966;5.284;2023-06-22T05:58:07;21.70;;;17.05;;
37459;SDS011;23318;50.966;5.284;2023-06-22T06:00:33;21.73;;;16.13;;
37459;SDS011;23318;50.966;5.284;2023-06-22T06:02:59;21.63;;;16.90;;
37459;SDS011;23318;50.966;5.284;2023-06-22T06:05:31;21.67;;;16.40;;
37459;SDS011;23318;50.966;5.284;2023-06-22T06:07:58;20.38;;;16.65;;
37459;SDS011;23318;50.966;5.284;2023-06-22T06:10:24;22.85;;;16.58;;
37459;SDS011;23318;50.966;5.284;2023-06-22T06:12:50;22.50;;;17.90;;
37459;SDS011;23318;50.966;5.284;2023-06-22T06:15:16;22.55;;;17.38;;
37459;SDS011;23318;50.966;5.284;2023-06-22T06:17:45;23.67;;;17.73;;
37459;SDS011;23318;50.966;5.284;2023-06-22T06:20:15;22.85;;;17.83;;
37459;SDS011;23318;50.966;5.284;2023-06-22T06:22:46;23.02;;;17.52;;
37459;SDS011;23318;50.966;5.284;2023-06-22T06:25:12;19.88;;;16.10;;
37459;SDS011;23318;50.966;5.284;2023-06-22T06:27:44;24.80;;;17.90;;
37459;SDS011;23318;50.966;5.284;2023-06-22T06:30:15;22.73;;;17.42;;
37459;SDS011;23318;50.966;5.284;2023-06-22T06:32:42;24.77;;;17.95;;
37459;SDS011;23318;50.966;5.284;2023-06-22T06:35:10;22.17;;;17.20;;
37459;SDS011;23318;50.966;5.284;2023-06-22T06:37:37;22.77;;;17.40;;
37459;SDS011;23318;50.966;5.284;2023-06-22T06:40:05;26.42;;;18.13;;
37459;SDS011;23318;50.966;5.284;2023-06-22T06:42:38;23.92;;;16.85;;
37459;SDS011;23318;50.966;5.284;2023-06-22T06:45:07;22.52;;;16.60;;
37459;SDS011;23318;50.966;5.284;2023-06-22T06:47:33;31.10;;;16.52;;
37459;SDS011;23318;50.966;5.284;2023-06-22T06:49:59;29.48;;;17.85;;
37459;SDS011;23318;50.966;5.284;2023-06-22T06:52:25;26.02;;;16.55;;
37459;SDS011;23318;50.966;5.284;2023-06-22T06:54:51;31.73;;;17.40;;
37459;SDS011;23318;50.966;5.284;2023-06-22T06:57:17;27.17;;;17.20;;
37459;SDS011;23318;50.966;5.284;2023-06-22T06:59:43;29.33;;;15.50;;
37459;SDS011;23318;50.966;5.284;2023-06-22T07:02:09;29.80;;;16.17;;
37459;SDS011;23318;50.966;5.284;2023-06-22T07:04:34;28.92;;;16.48;;
37459;SDS011;23318;50.966;5.284;2023-06-22T07:07:01;30.33;;;15.88;;
37459;SDS011;23318;50.966;5.284;2023-06-22T07:09:28;25.63;;;16.13;;
37459;SDS011;23318;50.966;5.284;2023-06-22T07:11:53;26.15;;;16.63;;
37459;SDS011;23318;50.966;5.284;2023-06-22T07:14:19;26.90;;;16.52;;
37459;SDS011;23318;50.966;5.284;2023-06-22T07:16:45;26.75;;;15.57;;
37459;SDS011;23318;50.966;5.284;2023-06-22T07:19:13;22.40;;;14.57;;
37459;SDS011;23318;50.966;5.284;2023-06-22T07:21:39;26.15;;;16.38;;
37459;SDS011;23318;50.966;5.284;2023-06-22T07:24:05;25.35;;;15.82;;
37459;SDS011;23318;50.966;5.284;2023-06-22T07:26:31;24.48;;;16.20;;
37459;SDS011;23318;50.966;5.284;2023-06-22T07:28:57;28.25;;;16.30;;
37459;SDS011;23318;50.966;5.284;2023-06-22T07:31:26;22.77;;;14.23;;
37459;SDS011;23318;50.966;5.284;2023-06-22T07:33:52;24.73;;;15.45;;
37459;SDS011;23318;50.966;5.284;2023-06-22T07:36:18;25.17;;;15.77;;
37459;SDS011;23318;50.966;5.284;2023-06-22T07:38:43;21.45;;;15.02;;
37459;SDS011;23318;50.966;5.284;2023-06-22T07:41:09;21.48;;;16.10;;
37459;SDS011;23318;50.966;5.284;2023-06-22T07:43:35;19.02;;;14.75;;
37459;SDS011;23318;50.966;5.284;2023-06-22T07:46:05;18.65;;;15.07;;
37459;SDS011;23318;50.966;5.284;2023-06-22T07:48:31;18.00;;;14.73;;
37459;SDS011;23318;50.966;5.284;2023-06-22T07:50:56;20.48;;;16.48;;
37459;SDS011;23318;50.966;5.284;2023-06-22T07:53:22;19.27;;;14.65;;
37459;SDS011;23318;50.966;5.284;2023-06-22T07:55:48;19.67;;;15.68;;
37459;SDS011;23318;50.966;5.284;2023-06-22T07:58:14;26.20;;;16.70;;
37459;SDS011;23318;50.966;5.284;2023-06-22T08:00:40;19.80;;;15.68;;
37459;SDS011;23318;50.966;5.284;2023-06-22T08:03:06;20.27;;;16.15;;
37459;SDS011;23318;50.966;5.284;2023-06-22T08:05:32;19.92;;;17.13;;
37459;SDS011;23318;50.966;5.284;2023-06-22T08:07:58;22.00;;;17.17;;
37459;SDS011;23318;50.966;5.284;2023-06-22T08:10:23;22.63;;;17.23;;
37459;SDS011;23318;50.966;5.284;2023-06-22T08:12:49;21.88;;;17.27;;
37459;SDS011;23318;50.966;5.284;2023-06-22T08:15:16;20.67;;;17.00;;
37459;SDS011;23318;50.966;5.284;2023-06-22T08:17:43;20.65;;;17.23;;
37459;SDS011;23318;50.966;5.284;2023-06-22T08:20:09;21.63;;;16.80;;
37459;SDS011;23318;50.966;5.284;2023-06-22T08:22:39;22.30;;;17.45;;
37459;SDS011;23318;50.966;5.284;2023-06-22T08:25:05;21.77;;;17.40;;
37459;SDS011;23318;50.966;5.284;2023-06-22T08:27:32;19.08;;;16.73;;
37459;SDS011;23318;50.966;5.284;2023-06-22T08:29:58;20.70;;;16.40;;
37459;SDS011;23318;50.966;5.284;2023-06-22T08:32:25;25.10;;;17.45;;
37459;SDS011;23318;50.966;5.284;2023-06-22T08:34:54;22.33;;;18.20;;
37459;SDS011;23318;50.966;5.284;2023-06-22T08:37:21;20.60;;;15.82;;
37459;SDS011;23318;50.966;5.284;2023-06-22T08:39:49;21.55;;;16.73;;
37459;SDS011;23318;50.966;5.284;2023-06-22T08:42:15;21.23;;;17.27;;
37459;SDS011;23318;50.966;5.284;2023-06-22T08:44:41;23.45;;;16.70;;
37459;SDS011;23318;50.966;5.284;2023-06-22T08:47:07;21.38;;;17.42;;
37459;SDS011;23318;50.966;5.284;2023-06-22T08:49:32;21.00;;;16.92;;
37459;SDS011;23318;50.966;5.284;2023-06-22T08:51:58;19.13;;;16.55;;
37459;SDS011;23318;50.966;5.284;2023-06-22T08:54:24;20.60;;;17.08;;
37459;SDS011;23318;50.966;5.284;2023-06-22T08:56:49;20.10;;;16.02;;
37459;SDS011;23318;50.966;5.284;2023-06-22T08:59:15;19.45;;;17.27;;
37459;SDS011;23318;50.966;5.284;2023-06-22T09:01:41;20.50;;;17.80;;
37459;SDS011;23318;50.966;5.284;2023-06-22T09:04:10;23.58;;;18.45;;
37459;SDS011;23318;50.966;5.284;2023-06-22T09:06:36;22.15;;;17.40;;
37459;SDS011;23318;50.966;5.284;2023-06-22T09:09:06;21.15;;;18.67;;
37459;SDS011;23318;50.966;5.284;2023-06-22T09:11:32;24.38;;;19.60;;
37459;SDS011;23318;50.966;5.284;2023-06-22T09:13:57;20.80;;;17.33;;
37459;SDS011;23318;50.966;5.284;2023-06-22T09:16:23;21.20;;;17.23;;
37459;SDS011;23318;50.966;5.284;2023-06-22T09:18:49;20.50;;;16.90;;
37459;SDS011;23318;50.966;5.284;2023-06-22T09:21:14;23.50;;;19.38;;
37459;SDS011;23318;50.966;5.284;2023-06-22T09:23:40;22.38;;;19.00;;
37459;SDS011;23318;50.966;5.284;2023-06-22T09:26:06;22.10;;;18.67;;
37459;SDS011;23318;50.966;5.284;2023-06-22T09:28:33;25.20;;;18.95;;
37459;SDS011;23318;50.966;5.284;2023-06-22T09:30:59;25.63;;;18.90;;
37459;SDS011;23318;50.966;5.284;2023-06-22T09:33:25;20.80;;;18.55;;
37459;SDS011;23318;50.966;5.284;2023-06-22T09:35:51;25.75;;;19.17;;
37459;SDS011;23318;50.966;5.284;2023-06-22T09:38:17;18.63;;;16.65;;
37459;SDS011;23318;50.966;5.284;2023-06-22T09:40:43;20.73;;;17.73;;
37459;SDS011;23318;50.966;5.284;2023-06-22T09:43:08;21.20;;;17.60;;
37459;SDS011;23318;50.966;5.284;2023-06-22T09:45:34;20.63;;;18.38;;
37459;SDS011;23318;50.966;5.284;2023-06-22T09:48:00;27.45;;;19.55;;
37459;SDS011;23318;50.966;5.284;2023-06-22T09:50:25;21.65;;;17.48;;
37459;SDS011;23318;50.966;5.284;2023-06-22T09:52:51;22.63;;;19.02;;
37459;SDS011;23318;50.966;5.284;2023-06-22T09:55:20;25.20;;;19.10;;
37459;SDS011;23318;50.966;5.284;2023-06-22T09:57:46;23.23;;;18.58;;
37459;SDS011;23318;50.966;5.284;2023-06-22T10:00:11;21.58;;;19.17;;
37459;SDS011;23318;50.966;5.284;2023-06-22T10:02:39;21.15;;;18.17;;
37459;SDS011;23318;50.966;5.284;2023-06-22T10:05:05;25.33;;;19.13;;
37459;SDS011;23318;50.966;5.284;2023-06-22T10:07:32;25.55;;;19.50;;
37459;SDS011;23318;50.966;5.284;2023-06-22T10:09:58;24.60;;;21.77;;
37459;SDS011;23318;50.966;5.284;2023-06-22T10:12:25;24.17;;;19.80;;
37459;SDS011;23318;50.966;5.284;2023-06-22T10:14:52;23.50;;;20.90;;
37459;SDS011;23318;50.966;5.284;2023-06-22T10:17:18;27.80;;;22.42;;
37459;SDS011;23318;50.966;5.284;2023-06-22T10:19:43;25.75;;;22.77;;
37459;SDS011;23318;50.966;5.284;2023-06-22T10:22:09;25.90;;;22.85;;
37459;SDS011;23318;50.966;5.284;2023-06-22T10:24:35;28.15;;;24.50;;
37459;SDS011;23318;50.966;5.284;2023-06-22T10:27:00;28.05;;;25.05;;
37459;SDS011;23318;50.966;5.284;2023-06-22T10:29:26;46.72;;;28.25;;
37459;SDS011;23318;50.966;5.284;2023-06-22T10:31:52;38.58;;;29.25;;
37459;SDS011;23318;50.966;5.284;2023-06-22T10:34:17;38.58;;;30.50;;
37459;SDS011;23318;50.966;5.284;2023-06-22T10:36:43;40.30;;;32.78;;
37459;SDS011;23318;50.966;5.284;2023-06-22T10:39:12;45.75;;;34.25;;
37459;SDS011;23318;50.966;5.284;2023-06-22T10:41:37;45.40;;;36.63;;
37459;SDS011;23318;50.966;5.284;2023-06-22T10:44:03;45.72;;;35.40;;
37459;SDS011;23318;50.966;5.284;2023-06-22T10:46:29;41.28;;;33.67;;
37459;SDS011;23318;50.966;5.284;2023-06-22T10:48:54;42.67;;;35.35;;
37459;SDS011;23318;50.966;5.284;2023-06-22T10:51:22;47.97;;;37.97;;
37459;SDS011;23318;50.966;5.284;2023-06-22T10:53:47;46.53;;;38.63;;
37459;SDS011;23318;50.966;5.284;2023-06-22T10:56:13;49.10;;;38.05;;
37459;SDS011;23318;50.966;5.284;2023-06-22T10:58:39;50.40;;;39.00;;
37459;SDS011;23318;50.966;5.284;2023-06-22T11:01:04;52.15;;;40.45;;
37459;SDS011;23318;50.966;5.284;2023-06-22T11:03:30;54.88;;;41.33;;
37459;SDS011;23318;50.966;5.284;2023-06-22T11:05:56;55.63;;;41.83;;
37459;SDS011;23318;50.966;5.284;2023-06-22T11:08:21;50.33;;;39.60;;
37459;SDS011;23318;50.966;5.284;2023-06-22T11:10:47;48.40;;;39.83;;
37459;SDS011;23318;50.966;5.284;2023-06-22T11:13:12;44.97;;;38.47;;
37459;SDS011;23318;50.966;5.284;2023-06-22T11:15:38;46.03;;;37.47;;
37459;SDS011;23318;50.966;5.284;2023-06-22T11:18:04;47.20;;;36.70;;
37459;SDS011;23318;50.966;5.284;2023-06-22T11:20:32;45.90;;;37.88;;
37459;SDS011;23318;50.966;5.284;2023-06-22T11:22:59;43.33;;;36.08;;
37459;SDS011;23318;50.966;5.284;2023-06-22T11:25:25;46.08;;;37.55;;
37459;SDS011;23318;50.966;5.284;2023-06-22T11:27:51;43.05;;;34.08;;
37459;SDS011;23318;50.966;5.284;2023-06-22T11:30:18;42.72;;;35.28;;
37459;SDS011;23318;50.966;5.284;2023-06-22T11:32:44;39.03;;;32.75;;
37459;SDS011;23318;50.966;5.284;2023-06-22T11:35:10;38.97;;;33.72;;
37459;SDS011;23318;50.966;5.284;2023-06-22T11:37:36;36.75;;;31.40;;
37459;SDS011;23318;50.966;5.284;2023-06-22T11:40:02;43.92;;;31.20;;
37459;SDS011;23318;50.966;5.284;2023-06-22T11:42:30;35.35;;;30.50;;
37459;SDS011;23318;50.966;5.284;2023-06-22T11:44:55;37.38;;;30.55;;
37459;SDS011;23318;50.966;5.284;2023-06-22T11:47:21;33.60;;;30.00;;
37459;SDS011;23318;50.966;5.284;2023-06-22T11:49:47;37.63;;;32.17;;
37459;SDS011;23318;50.966;5.284;2023-06-22T11:52:12;40.95;;;30.60;;
37459;SDS011;23318;50.966;5.284;2023-06-22T11:54:38;41.17;;;33.97;;
37459;SDS011;23318;50.966;5.284;2023-06-22T11:57:04;39.95;;;34.83;;
37459;SDS011;23318;50.966;5.284;2023-06-22T11:59:29;42.63;;;35.78;;
37459;SDS011;23318;50.966;5.284;2023-06-22T12:01:56;40.05;;;34.70;;
37459;SDS011;23318;50.966;5.284;2023-06-22T12:04:23;42.45;;;35.70;;
37459;SDS011;23318;50.966;5.284;2023-06-22T12:06:48;41.97;;;37.30;;
37459;SDS011;23318;50.966;5.284;2023-06-22T12:09:14;41.67;;;35.88;;
37459;SDS011;23318;50.966;5.284;2023-06-22T12:11:40;45.33;;;37.85;;
37459;SDS011;23318;50.966;5.284;2023-06-22T12:14:05;48.33;;;38.40;;
37459;SDS011;23318;50.966;5.284;2023-06-22T12:16:31;45.40;;;36.85;;
37459;SDS011;23318;50.966;5.284;2023-06-22T12:18:57;46.58;;;36.85;;
37459;SDS011;23318;50.966;5.284;2023-06-22T12:21:22;50.25;;;38.90;;
37459;SDS011;23318;50.966;5.284;2023-06-22T12:23:48;48.15;;;38.17;;
37459;SDS011;23318;50.966;5.284;2023-06-22T12:26:14;46.30;;;38.70;;
37459;SDS011;23318;50.966;5.284;2023-06-22T12:28:39;50.38;;;40.20;;
37459;SDS011;23318;50.966;5.284;2023-06-22T12:31:05;50.08;;;40.67;;
37459;SDS011;23318;50.966;5.284;2023-06-22T12:33:32;55.80;;;43.33;;
37459;SDS011;23318;50.966;5.284;2023-06-22T12:35:58;52.40;;;41.58;;
37459;SDS011;23318;50.966;5.284;2023-06-22T12:38:23;52.28;;;43.28;;
37459;SDS011;23318;50.966;5.284;2023-06-22T12:40:50;48.05;;;40.50;;
37459;SDS011;23318;50.966;5.284;2023-06-22T12:43:16;57.05;;;44.90;;
37459;SDS011;23318;50.966;5.284;2023-06-22T12:45:42;51.15;;;42.72;;
37459;SDS011;23318;50.966;5.284;2023-06-22T12:48:08;56.33;;;42.72;;
37459;SDS011;23318;50.966;5.284;2023-06-22T12:50:34;51.17;;;41.38;;
37459;SDS011;23318;50.966;5.284;2023-06-22T12:52:59;50.53;;;41.85;;
37459;SDS011;23318;50.966;5.284;2023-06-22T12:55:27;54.05;;;42.00;;
37459;SDS011;23318;50.966;5.284;2023-06-22T12:57:53;47.20;;;41.03;;
37459;SDS011;23318;50.966;5.284;2023-06-22T13:00:18;48.13;;;37.95;;
37459;SDS011;23318;50.966;5.284;2023-06-22T13:02:45;50.15;;;41.05;;
37459;SDS011;23318;50.966;5.284;2023-06-22T13:05:10;50.30;;;39.67;;
37459;SDS011;23318;50.966;5.284;2023-06-22T13:07:36;53.33;;;41.60;;
37459;SDS011;23318;50.966;5.284;2023-06-22T13:10:02;51.78;;;39.13;;
37459;SDS011;23318;50.966;5.284;2023-06-22T13:12:28;49.92;;;39.38;;
37459;SDS011;23318;50.966;5.284;2023-06-22T13:14:54;49.65;;;38.95;;
37459;SDS011;23318;50.966;5.284;2023-06-22T13:17:20;51.83;;;39.22;;
37459;SDS011;23318;50.966;5.284;2023-06-22T13:19:46;47.70;;;38.13;;
37459;SDS011;23318;50.966;5.284;2023-06-22T13:22:25;46.40;;;37.10;;
37459;SDS011;23318;50.966;5.284;2023-06-22T13:24:53;44.67;;;37.50;;
37459;SDS011;23318;50.966;5.284;2023-06-22T13:27:18;46.22;;;38.50;;
37459;SDS011;23318;50.966;5.284;2023-06-22T13:29:44;52.33;;;40.17;;
37459;SDS011;23318;50.966;5.284;2023-06-22T13:32:09;48.70;;;38.05;;
37459;SDS011;23318;50.966;5.284;2023-06-22T13:34:35;52.15;;;37.58;;
37459;SDS011;23318;50.966;5.284;2023-06-22T13:37:01;47.53;;;38.83;;
37459;SDS011;23318;50.966;5.284;2023-06-22T13:39:26;55.00;;;39.45;;
37459;SDS011;23318;50.966;5.284;2023-06-22T13:41:52;51.53;;;39.38;;
37459;SDS011;23318;50.966;5.284;2023-06-22T13:44:18;50.35;;;39.05;;
37459;SDS011;23318;50.966;5.284;2023-06-22T13:46:43;44.95;;;35.45;;
37459;SDS011;23318;50.966;5.284;2023-06-22T13:49:09;46.90;;;36.13;;
37459;SDS011;23318;50.966;5.284;2023-06-22T13:51:35;51.25;;;36.65;;
37459;SDS011;23318;50.966;5.284;2023-06-22T13:54:01;48.03;;;36.72;;
37459;SDS011;23318;50.966;5.284;2023-06-22T13:56:27;50.65;;;37.50;;
37459;SDS011;23318;50.966;5.284;2023-06-22T13:58:53;58.22;;;40.53;;
37459;SDS011;23318;50.966;5.284;2023-06-22T14:01:18;55.72;;;40.72;;
37459;SDS011;23318;50.966;5.284;2023-06-22T14:03:44;58.58;;;44.28;;
37459;SDS011;23318;50.966;5.284;2023-06-22T14:06:12;57.45;;;42.50;;
37459;SDS011;23318;50.966;5.284;2023-06-22T14:08:37;62.28;;;44.85;;
37459;SDS011;23318;50.966;5.284;2023-06-22T14:11:03;55.30;;;42.03;;
37459;SDS011;23318;50.966;5.284;2023-06-22T14:13:29;55.05;;;41.05;;
37459;SDS011;23318;50.966;5.284;2023-06-22T14:15:55;58.97;;;45.22;;
37459;SDS011;23318;50.966;5.284;2023-06-22T14:18:20;59.50;;;45.65;;
37459;SDS011;23318;50.966;5.284;2023-06-22T14:20:47;59.60;;;45.40;;
37459;SDS011;23318;50.966;5.284;2023-06-22T14:23:14;64.20;;;47.58;;
37459;SDS011;23318;50.966;5.284;2023-06-22T14:25:40;69.32;;;48.72;;
37459;SDS011;23318;50.966;5.284;2023-06-22T14:28:06;60.58;;;45.30;;
37459;SDS011;23318;50.966;5.284;2023-06-22T14:30:31;62.35;;;47.63;;